Terminal Aerodrome Forecast
Issued by NWS

Home | Current Version | Previous Version | Text Only | Print | Product List | Glossary On
Versions: 1 2 3 4 5 6 7 8 9 10 11 12 13 14 15 16 17 18 19 20 21
000
FTUS44 KOUN 212335
TAFPNC
TAF
KPNC 212335Z 2200/2224 17011KT P6SM SCT035 OVC050
      TEMPO 2200/2201 VRB25G40KT 2SM TSRA OVC015CB
     FM220100 32014G22KT 2SM +TSRA OVC015CB
     FM220300 35013G21KT 6SM -TSRA BKN035CB OVC100
     FM220500 35013KT P6SM BKN250
     FM221100 31007KT P6SM SKC=

USA.gov is the U.S. government's official web portal to all federal, state and local government web resources and services.